createdAt,value
2019-03-23T00:02:17.873Z,15.65
2019-03-23T00:04:46.501Z,17.37
2019-03-23T00:07:15.046Z,12.40
2019-03-23T00:09:43.954Z,14.55
2019-03-23T00:12:12.824Z,13.90
2019-03-23T00:14:41.824Z,13.53
2019-03-23T00:17:10.360Z,13.55
2019-03-23T00:19:38.938Z,14.00
2019-03-23T00:22:19.545Z,16.27
2019-03-23T00:24:57.085Z,17.35
2019-03-23T00:27:26.024Z,16.27
2019-03-23T00:29:54.584Z,15.53
2019-03-23T00:32:23.120Z,16.60
2019-03-23T00:34:51.980Z,15.60
2019-03-23T00:37:20.536Z,16.45
2019-03-23T00:39:49.796Z,16.70
2019-03-23T00:42:18.664Z,15.40
2019-03-23T00:44:47.156Z,16.95
2019-03-23T00:47:15.936Z,16.62
2019-03-23T00:49:44.860Z,16.67
2019-03-23T00:52:13.742Z,18.55
2019-03-23T00:54:42.724Z,19.35
2019-03-23T00:57:11.206Z,21.45
2019-03-23T00:59:40.340Z,20.00
2019-03-23T01:02:12.822Z,14.05
2019-03-23T01:04:41.533Z,13.93
2019-03-23T01:07:10.385Z,22.82
2019-03-23T01:09:39.209Z,21.52
2019-03-23T01:12:08.079Z,23.10
2019-03-23T01:14:36.962Z,22.62
2019-03-23T01:17:05.829Z,25.40
2019-03-23T01:19:34.933Z,31.42
2019-03-23T01:22:03.876Z,29.67
2019-03-23T01:24:32.938Z,27.48
2019-03-23T01:27:02.964Z,28.07
2019-03-23T01:29:31.861Z,31.40
2019-03-23T01:32:00.729Z,31.62
2019-03-23T01:34:29.617Z,32.03
2019-03-23T01:37:02.750Z,31.15
2019-03-23T01:39:29.063Z,33.50
2019-03-23T01:41:57.975Z,37.67
2019-03-23T01:44:26.821Z,37.90
2019-03-23T01:46:55.787Z,35.55
2019-03-23T01:49:24.667Z,36.58
2019-03-23T01:51:53.589Z,36.77
2019-03-23T01:54:22.541Z,38.23
2019-03-23T01:56:52.045Z,37.23
2019-03-23T01:59:20.914Z,40.80
2019-03-23T02:01:49.808Z,40.15
2019-03-23T02:04:18.669Z,40.98
2019-03-23T02:06:47.557Z,39.35
2019-03-23T02:09:16.431Z,33.35
2019-03-23T02:11:45.392Z,36.80
2019-03-23T02:14:14.248Z,40.30
2019-03-23T02:16:43.073Z,43.40
2019-03-23T02:19:12.054Z,44.40
2019-03-23T02:21:40.982Z,46.92
2019-03-23T02:24:09.867Z,42.48
2019-03-23T02:26:38.779Z,43.55
2019-03-23T02:29:07.644Z,43.15
2019-03-23T02:31:36.468Z,43.10
2019-03-23T02:34:05.331Z,46.58
2019-03-23T02:36:34.229Z,45.33
2019-03-23T02:39:04.485Z,43.35
2019-03-23T02:41:33.355Z,45.92
2019-03-23T02:44:02.228Z,43.30
2019-03-23T02:46:31.135Z,42.10
2019-03-23T02:48:59.985Z,40.90
2019-03-23T02:51:28.877Z,43.87
2019-03-23T02:53:57.753Z,43.00
2019-03-23T02:56:26.646Z,40.25
2019-03-23T02:58:55.533Z,40.90
2019-03-23T03:01:24.389Z,39.20
2019-03-23T03:03:53.200Z,39.53
2019-03-23T03:06:22.165Z,42.85
2019-03-23T03:08:51.053Z,43.10
2019-03-23T03:11:19.906Z,41.98
2019-03-23T03:13:48.709Z,39.27
2019-03-23T03:16:17.579Z,40.43
2019-03-23T03:18:46.458Z,38.00
2019-03-23T03:21:15.330Z,41.88
2019-03-23T03:23:44.154Z,41.40
2019-03-23T03:26:12.936Z,41.88
2019-03-23T03:28:41.884Z,39.98
2019-03-23T03:31:10.749Z,41.35
2019-03-23T03:33:39.577Z,42.75
2019-03-23T03:36:08.437Z,40.55
2019-03-23T03:38:38.168Z,41.65
2019-03-23T03:41:07.085Z,42.93
2019-03-23T03:43:35.973Z,43.13
2019-03-23T03:46:04.906Z,42.73
2019-03-23T03:48:33.818Z,38.65
2019-03-23T03:51:02.671Z,44.05
2019-03-23T03:53:31.592Z,43.05
2019-03-23T03:56:00.443Z,40.92
2019-03-23T03:58:29.408Z,43.75
2019-03-23T04:00:58.198Z,44.45
2019-03-23T04:03:27.136Z,43.78
2019-03-23T04:05:55.989Z,43.68
2019-03-23T04:08:24.882Z,46.10
2019-03-23T04:10:53.742Z,45.25
2019-03-23T04:13:22.651Z,44.13
2019-03-23T04:15:51.589Z,48.17
2019-03-23T04:18:20.498Z,47.80
2019-03-23T04:20:49.471Z,46.85
2019-03-23T04:23:18.331Z,47.70
2019-03-23T04:25:47.192Z,47.90
2019-03-23T04:28:16.087Z,51.70
2019-03-23T04:30:44.945Z,49.70
2019-03-23T04:33:13.845Z,51.05
2019-03-23T04:35:42.703Z,52.20
2019-03-23T04:38:22.171Z,51.28
2019-03-23T04:40:42.130Z,52.48
2019-03-23T04:43:11.028Z,51.33
2019-03-23T04:45:39.994Z,51.08
2019-03-23T04:48:08.865Z,50.25
2019-03-23T04:50:37.654Z,44.85
2019-03-23T04:53:06.457Z,49.83
2019-03-23T04:55:35.356Z,47.60
2019-03-23T04:58:04.359Z,46.58
2019-03-23T05:00:33.268Z,49.67
2019-03-23T05:03:02.125Z,50.15
2019-03-23T05:05:31.010Z,49.25
2019-03-23T05:07:59.860Z,47.08
2019-03-23T05:10:28.668Z,50.75
2019-03-23T05:12:57.448Z,48.85
2019-03-23T05:15:26.255Z,53.55
2019-03-23T05:17:55.042Z,50.35
2019-03-23T05:20:29.732Z,51.73
2019-03-23T05:22:58.680Z,50.00
2019-03-23T05:25:27.932Z,45.08
2019-03-23T05:27:57.654Z,43.33
2019-03-23T05:30:26.542Z,43.10
2019-03-23T05:32:55.476Z,43.78
2019-03-23T05:35:25.168Z,45.30
2019-03-23T05:37:54.024Z,43.15
2019-03-23T05:40:22.837Z,41.70
2019-03-23T05:42:51.736Z,43.20
2019-03-23T05:45:20.633Z,41.35
2019-03-23T05:47:49.505Z,43.73
2019-03-23T05:50:18.403Z,46.13
2019-03-23T05:52:47.328Z,44.93
2019-03-23T05:55:16.152Z,44.18
2019-03-23T05:57:44.938Z,42.98
2019-03-23T06:00:16.754Z,41.00
2019-03-23T06:02:45.603Z,44.33
2019-03-23T06:05:14.513Z,42.98
2019-03-23T06:07:43.301Z,43.13
2019-03-23T06:10:31.559Z,42.17
2019-03-23T06:13:00.415Z,40.58
2019-03-23T06:15:29.318Z,40.98
2019-03-23T06:17:58.169Z,42.30
2019-03-23T06:20:46.373Z,42.40
2019-03-23T06:23:15.269Z,40.95
2019-03-23T06:25:44.153Z,42.00
2019-03-23T06:28:13.010Z,40.08
2019-03-23T06:30:41.877Z,42.00
2019-03-23T06:33:10.753Z,42.45
2019-03-23T06:35:39.631Z,41.20
2019-03-23T06:38:08.557Z,40.85
2019-03-23T06:40:37.514Z,40.83
2019-03-23T06:43:06.377Z,38.30
2019-03-23T06:45:35.261Z,36.68
2019-03-23T06:48:04.225Z,38.10
2019-03-23T06:50:33.112Z,38.50
2019-03-23T06:53:01.962Z,41.00
2019-03-23T06:55:30.917Z,38.30
2019-03-23T06:57:59.789Z,38.30
2019-03-23T07:00:29.866Z,39.85
2019-03-23T07:02:58.665Z,39.45
2019-03-23T07:05:27.551Z,37.90
2019-03-23T07:07:56.426Z,40.08
2019-03-23T07:10:25.398Z,38.98
2019-03-23T07:12:54.292Z,38.73
2019-03-23T07:15:23.169Z,38.02
2019-03-23T07:17:51.977Z,38.63
2019-03-23T07:20:20.920Z,38.35
2019-03-23T07:22:49.858Z,37.67
2019-03-23T07:25:18.749Z,37.95
2019-03-23T07:27:47.553Z,38.83
2019-03-23T07:30:17.585Z,39.20
2019-03-23T07:32:46.729Z,38.70
2019-03-23T07:35:15.970Z,41.05
2019-03-23T07:37:44.834Z,37.17
2019-03-23T07:40:13.936Z,39.23
2019-03-23T07:42:42.826Z,39.20
2019-03-23T07:45:13.992Z,41.58
2019-03-23T07:47:43.182Z,40.65
2019-03-23T07:50:13.938Z,38.28
2019-03-23T07:52:42.836Z,40.17
2019-03-23T07:55:16.206Z,37.83
2019-03-23T07:57:45.639Z,42.08
2019-03-23T08:00:21.115Z,38.30
2019-03-23T08:02:49.988Z,39.67
2019-03-23T08:05:18.864Z,39.53
2019-03-23T08:07:47.771Z,39.83
2019-03-23T08:10:22.694Z,38.10
2019-03-23T08:12:51.580Z,37.20
2019-03-23T08:15:20.377Z,38.02
2019-03-23T08:17:49.209Z,38.50
2019-03-23T08:20:18.073Z,36.33
2019-03-23T08:22:46.986Z,38.55
2019-03-23T08:25:15.845Z,37.93
2019-03-23T08:27:44.754Z,36.65
2019-03-23T08:30:13.980Z,36.10
2019-03-23T08:32:42.885Z,37.28
2019-03-23T08:35:11.884Z,37.45
2019-03-23T08:37:40.716Z,38.25
2019-03-23T08:40:11.039Z,38.85
2019-03-23T08:42:39.865Z,38.33
2019-03-23T08:45:08.602Z,37.00
2019-03-23T08:47:37.284Z,37.20
2019-03-23T08:50:07.020Z,36.57
2019-03-23T08:52:35.632Z,38.50
2019-03-23T08:55:05.161Z,37.03
2019-03-23T08:57:33.707Z,38.17
2019-03-23T09:00:02.293Z,35.87
2019-03-23T09:02:30.943Z,37.00
2019-03-23T09:04:59.491Z,37.63
2019-03-23T09:07:28.103Z,34.80
2019-03-23T09:09:59.464Z,33.10
2019-03-23T09:12:28.285Z,35.60
2019-03-23T09:14:56.797Z,31.73
2019-03-23T09:17:25.353Z,36.53
2019-03-23T09:19:53.970Z,32.43
2019-03-23T09:22:22.978Z,32.13
2019-03-23T09:24:51.610Z,33.80
2019-03-23T09:27:20.247Z,31.90
2019-03-23T09:29:48.876Z,34.40
2019-03-23T09:32:17.672Z,33.73
2019-03-23T09:34:46.252Z,32.17
2019-03-23T09:37:17.782Z,34.10
2019-03-23T09:39:46.319Z,32.37
2019-03-23T09:42:15.006Z,37.20
2019-03-23T09:44:43.595Z,35.17
2019-03-23T09:47:12.212Z,35.17
2019-03-23T09:49:40.843Z,36.23
2019-03-23T09:52:09.370Z,36.20
2019-03-23T09:54:37.980Z,34.47
2019-03-23T09:57:06.558Z,34.10
2019-03-23T09:59:35.182Z,34.90
2019-03-23T10:02:03.840Z,34.77
2019-03-23T10:04:32.454Z,37.40
2019-03-23T10:07:01.122Z,33.80
2019-03-23T10:09:29.752Z,35.27
2019-03-23T10:11:59.315Z,35.00
2019-03-23T10:14:28.046Z,36.57
2019-03-23T10:16:56.642Z,36.53
2019-03-23T10:19:25.345Z,37.73
2019-03-23T10:21:54.036Z,40.50
2019-03-23T10:24:22.616Z,36.20
2019-03-23T10:26:52.269Z,38.67
2019-03-23T10:29:21.025Z,40.37
2019-03-23T10:31:49.672Z,39.40
2019-03-23T10:34:18.338Z,37.67
2019-03-23T10:36:46.989Z,37.00
2019-03-23T10:39:15.898Z,37.63
2019-03-23T10:41:44.642Z,39.40
2019-03-23T10:44:13.237Z,39.40
2019-03-23T10:46:41.759Z,40.27
2019-03-23T10:49:10.522Z,38.37
2019-03-23T10:51:39.176Z,41.60
2019-03-23T10:54:07.924Z,41.60
2019-03-23T10:56:36.634Z,38.13
2019-03-23T10:59:05.264Z,37.63
2019-03-23T11:01:33.822Z,37.10
2019-03-23T11:04:02.433Z,37.10
2019-03-23T11:06:31.103Z,34.93
2019-03-23T11:08:59.805Z,37.10
2019-03-23T11:11:28.371Z,37.23
2019-03-23T11:13:57.045Z,35.60
2019-03-23T11:16:25.731Z,37.10
2019-03-23T11:18:54.375Z,34.87
2019-03-23T11:21:22.928Z,36.97
2019-03-23T11:23:51.465Z,36.03
2019-03-23T11:26:20.079Z,38.20
2019-03-23T11:28:48.657Z,37.90
2019-03-23T11:31:17.263Z,39.27
2019-03-23T11:33:45.777Z,38.57
2019-03-23T11:36:14.402Z,38.50
2019-03-23T11:38:42.987Z,40.37
2019-03-23T11:41:11.520Z,36.30
2019-03-23T11:43:40.233Z,42.00
2019-03-23T11:46:08.869Z,36.70
2019-03-23T11:48:37.453Z,37.40
2019-03-23T11:51:06.011Z,35.50
2019-03-23T11:53:34.630Z,39.03
2019-03-23T11:56:03.277Z,35.60
2019-03-23T11:58:31.891Z,35.83
2019-03-23T12:01:00.641Z,37.77
2019-03-23T12:03:29.259Z,37.70
2019-03-23T12:05:58.068Z,37.10
2019-03-23T12:08:26.696Z,38.93
2019-03-23T12:11:02.952Z,40.47
2019-03-23T12:13:25.881Z,39.47
2019-03-23T12:15:54.434Z,36.47
2019-03-23T12:18:23.177Z,37.80
2019-03-23T12:20:51.788Z,39.10
2019-03-23T12:23:20.018Z,36.83
2019-03-23T12:25:48.834Z,37.50
2019-03-23T12:28:17.054Z,33.13
2019-03-23T12:30:51.452Z,33.50
2019-03-23T12:33:21.501Z,31.80
2019-03-23T12:35:50.505Z,30.77
2019-03-23T12:38:19.115Z,31.30
2019-03-23T12:40:47.722Z,29.87
2019-03-23T12:43:17.417Z,35.17
2019-03-23T12:45:46.142Z,34.90
2019-03-23T12:48:14.746Z,33.93
2019-03-23T12:50:43.381Z,35.97
2019-03-23T12:53:13.225Z,35.40
2019-03-23T12:55:41.812Z,36.00
2019-03-23T12:58:10.605Z,36.63
2019-03-23T13:00:39.277Z,38.13
2019-03-23T13:03:07.904Z,34.33
2019-03-23T13:05:36.522Z,35.97
2019-03-23T13:08:05.081Z,35.10
2019-03-23T13:10:33.626Z,35.67
2019-03-23T13:13:02.301Z,34.43
2019-03-23T13:15:30.891Z,33.53
2019-03-23T13:17:59.537Z,33.97
2019-03-23T13:20:28.148Z,34.93
2019-03-23T13:22:57.105Z,35.63
2019-03-23T13:25:25.762Z,36.10
2019-03-23T13:27:54.371Z,35.13
2019-03-23T13:30:22.882Z,34.80
2019-03-23T13:32:51.493Z,35.23
2019-03-23T13:35:20.113Z,35.20
2019-03-23T13:37:48.815Z,33.13
2019-03-23T13:40:17.419Z,33.73
2019-03-23T13:42:46.031Z,32.10
2019-03-23T13:45:15.097Z,31.77
2019-03-23T13:47:43.714Z,34.57
2019-03-23T13:50:15.409Z,33.57
2019-03-23T13:53:03.312Z,33.50
2019-03-23T13:55:34.082Z,34.63
2019-03-23T13:58:08.628Z,32.83
2019-03-23T14:00:37.396Z,33.73
2019-03-23T14:03:07.771Z,33.80
2019-03-23T14:05:36.720Z,32.73
2019-03-23T14:08:05.685Z,32.80
2019-03-23T14:10:34.338Z,35.33
2019-03-23T14:13:02.958Z,33.33
2019-03-23T14:15:31.565Z,31.93
2019-03-23T14:18:00.189Z,32.37
2019-03-23T14:20:28.909Z,32.93
2019-03-23T14:23:02.544Z,33.17
2019-03-23T14:25:27.797Z,34.43
2019-03-23T14:27:56.413Z,31.73
2019-03-23T14:30:24.945Z,34.90
2019-03-23T14:32:53.573Z,31.83
2019-03-23T14:35:22.174Z,34.23
2019-03-23T14:37:50.806Z,31.63
2019-03-23T14:40:19.092Z,31.70
2019-03-23T14:42:47.773Z,31.97
2019-03-23T14:45:16.370Z,30.83
2019-03-23T14:47:45.020Z,31.13
2019-03-23T14:50:13.948Z,32.33
2019-03-23T14:53:01.901Z,31.20
2019-03-23T14:55:30.558Z,31.23
2019-03-23T14:57:59.103Z,33.83
2019-03-23T15:00:32.193Z,32.37
2019-03-23T15:03:00.763Z,32.57
2019-03-23T15:05:29.049Z,31.83
2019-03-23T15:07:57.657Z,32.93
2019-03-23T15:10:26.255Z,33.10
2019-03-23T15:12:54.905Z,34.00
2019-03-23T15:15:23.498Z,32.40
2019-03-23T15:17:51.775Z,34.87
2019-03-23T15:20:20.383Z,38.10
2019-03-23T15:22:48.966Z,34.67
2019-03-23T15:25:17.534Z,37.17
2019-03-23T15:27:46.276Z,37.20
2019-03-23T15:30:15.074Z,37.63
2019-03-23T15:32:43.587Z,37.60
2019-03-23T15:35:12.260Z,35.87
2019-03-23T15:37:40.778Z,34.20
2019-03-23T15:40:09.565Z,35.90
2019-03-23T15:42:38.095Z,30.77
2019-03-23T15:45:08.836Z,30.80
2019-03-23T15:47:37.519Z,31.10
2019-03-23T15:50:07.944Z,29.60
2019-03-23T15:52:36.513Z,30.50
2019-03-23T15:55:06.073Z,30.93
2019-03-23T15:57:34.936Z,30.00
2019-03-23T16:00:12.108Z,29.47
2019-03-23T16:02:40.808Z,26.80
2019-03-23T16:05:09.157Z,27.87
2019-03-23T16:07:37.797Z,27.20
2019-03-23T16:10:07.356Z,29.30
2019-03-23T16:12:37.801Z,29.53
2019-03-23T16:15:11.297Z,28.33
2019-03-23T16:17:39.965Z,29.70
2019-03-23T16:20:10.600Z,28.30
2019-03-23T16:22:39.147Z,26.10
2019-03-23T16:25:10.341Z,25.77
2019-03-23T16:27:38.958Z,27.20
2019-03-23T16:30:10.609Z,25.10
2019-03-23T16:32:39.320Z,25.83
2019-03-23T16:35:07.859Z,28.27
2019-03-23T16:37:36.538Z,28.50
2019-03-23T16:40:08.179Z,24.37
2019-03-23T16:42:44.569Z,21.93
2019-03-23T16:45:09.529Z,18.73
2019-03-23T16:47:38.454Z,14.60
2019-03-23T16:50:08.460Z,13.67
2019-03-23T16:52:37.996Z,14.63
2019-03-23T16:55:10.478Z,14.33
2019-03-23T16:57:39.121Z,14.50
2019-03-23T17:00:11.192Z,14.03
2019-03-23T17:02:40.151Z,12.37
2019-03-23T17:05:08.950Z,12.47
2019-03-23T17:07:38.880Z,11.25
2019-03-23T17:10:09.914Z,9.65
2019-03-23T17:12:38.933Z,10.03
2019-03-23T17:15:09.382Z,10.28
2019-03-23T17:17:38.272Z,11.38
2019-03-23T17:20:09.111Z,10.25
2019-03-23T17:22:37.995Z,9.85
2019-03-23T17:25:07.529Z,8.70
2019-03-23T17:27:36.389Z,8.05
2019-03-23T17:30:10.610Z,7.78
2019-03-23T17:32:39.480Z,8.30
2019-03-23T17:35:10.186Z,8.15
2019-03-23T17:37:39.057Z,8.23
2019-03-23T17:40:08.484Z,8.68
2019-03-23T17:42:37.476Z,9.30
2019-03-23T17:45:08.074Z,8.60
2019-03-23T17:47:36.985Z,10.25
2019-03-23T17:50:06.182Z,9.20
2019-03-23T17:52:35.136Z,8.45
2019-03-23T17:55:08.186Z,10.18
2019-03-23T17:57:37.128Z,9.85
2019-03-23T18:00:08.841Z,10.30
2019-03-23T18:02:37.954Z,11.10
2019-03-23T18:05:12.060Z,10.38
2019-03-23T18:07:40.558Z,10.30
2019-03-23T18:10:09.676Z,10.10
2019-03-23T18:12:38.708Z,11.45
2019-03-23T18:15:08.912Z,10.70
2019-03-23T18:17:37.802Z,9.95
2019-03-23T18:20:07.309Z,8.90
2019-03-23T18:22:36.196Z,9.85
2019-03-23T18:25:07.040Z,10.78
2019-03-23T18:27:36.119Z,9.98
2019-03-23T18:30:08.730Z,8.98
2019-03-23T18:32:37.651Z,8.80
2019-03-23T18:35:07.194Z,10.50
2019-03-23T18:37:36.091Z,10.58
2019-03-23T18:40:08.227Z,10.28
2019-03-23T18:42:37.261Z,9.60
2019-03-23T18:45:06.802Z,10.50
2019-03-23T18:47:35.713Z,10.65
2019-03-23T18:50:06.377Z,13.58
2019-03-23T18:52:35.275Z,12.25
2019-03-23T18:55:06.485Z,12.90
2019-03-23T18:57:35.383Z,9.50
2019-03-23T19:00:06.521Z,8.88
2019-03-23T19:02:35.415Z,8.70
2019-03-23T19:05:05.561Z,10.00
2019-03-23T19:07:34.541Z,8.93
2019-03-23T19:10:04.081Z,11.35
2019-03-23T19:12:32.987Z,11.60
2019-03-23T19:15:01.841Z,9.85
2019-03-23T19:17:30.725Z,9.15
2019-03-23T19:19:59.599Z,10.08
2019-03-23T19:22:28.497Z,8.83
2019-03-23T19:24:57.371Z,9.43
2019-03-23T19:27:26.348Z,9.60
2019-03-23T19:29:55.213Z,10.40
2019-03-23T19:32:24.046Z,9.80
2019-03-23T19:34:52.924Z,11.35
2019-03-23T19:37:21.859Z,11.12
2019-03-23T19:39:50.744Z,10.85
2019-03-23T19:42:19.326Z,9.20
2019-03-23T19:44:48.192Z,10.90
2019-03-23T19:47:17.110Z,8.95
2019-03-23T19:49:45.976Z,9.55
2019-03-23T19:52:14.850Z,11.48
2019-03-23T19:54:43.756Z,11.25
2019-03-23T19:57:12.635Z,9.68
2019-03-23T19:59:41.516Z,8.60
2019-03-23T20:02:10.362Z,8.60
2019-03-23T20:04:39.200Z,8.73
2019-03-23T20:07:08.056Z,9.63
2019-03-23T20:09:37.009Z,8.58
2019-03-23T20:12:05.940Z,8.18
2019-03-23T20:14:34.742Z,7.60
2019-03-23T20:17:03.626Z,7.62
2019-03-23T20:19:32.518Z,6.45
2019-03-23T20:22:01.376Z,6.53
2019-03-23T20:24:30.256Z,6.15
2019-03-23T20:26:59.112Z,7.42
2019-03-23T20:29:28.030Z,6.60
2019-03-23T20:31:56.890Z,6.00
2019-03-23T20:34:25.715Z,6.22
2019-03-23T20:36:55.112Z,6.03
2019-03-23T20:39:24.037Z,5.78
2019-03-23T20:41:52.892Z,6.58
2019-03-23T20:44:21.866Z,5.95
2019-03-23T20:46:50.721Z,5.60
2019-03-23T20:49:19.851Z,7.53
2019-03-23T20:51:48.869Z,5.55
2019-03-23T20:54:17.796Z,6.50
2019-03-23T20:56:46.657Z,6.17
2019-03-23T20:59:15.543Z,7.03
2019-03-23T21:01:44.477Z,7.58
2019-03-23T21:04:13.349Z,7.40
2019-03-23T21:06:42.157Z,7.90
2019-03-23T21:09:11.137Z,8.10
2019-03-23T21:11:39.985Z,9.08
2019-03-23T21:14:19.636Z,8.00
2019-03-23T21:16:39.457Z,10.08
2019-03-23T21:19:08.345Z,9.08
2019-03-23T21:21:37.214Z,9.83
2019-03-23T21:24:06.121Z,12.00
2019-03-23T21:26:35.005Z,9.45
2019-03-23T21:29:03.931Z,9.80
2019-03-23T21:31:32.481Z,10.13
2019-03-23T21:34:01.058Z,9.70
2019-03-23T21:36:29.953Z,9.33
2019-03-23T21:38:58.821Z,10.05
2019-03-23T21:41:27.711Z,6.40
2019-03-23T21:43:56.594Z,8.70
2019-03-23T21:46:25.501Z,6.72
2019-03-23T21:48:54.360Z,6.62
2019-03-23T21:51:22.921Z,6.80
2019-03-23T21:53:51.851Z,5.80
2019-03-23T21:56:20.729Z,6.25
2019-03-23T21:58:49.585Z,6.50
2019-03-23T22:01:18.430Z,6.22
2019-03-23T22:03:47.310Z,6.25
2019-03-23T22:06:16.373Z,5.97
2019-03-23T22:08:45.177Z,5.85
2019-03-23T22:11:14.074Z,5.65
2019-03-23T22:13:43.037Z,4.15
2019-03-23T22:16:11.981Z,5.12
2019-03-23T22:18:40.845Z,4.60
2019-03-23T22:21:29.638Z,4.55
2019-03-23T22:23:58.441Z,4.42
2019-03-23T22:26:27.376Z,4.80
2019-03-23T22:28:56.287Z,4.92
2019-03-23T22:31:25.128Z,4.75
2019-03-23T22:33:53.977Z,4.12
2019-03-23T22:36:22.880Z,4.50
2019-03-23T22:38:51.746Z,5.10
2019-03-23T22:41:20.614Z,4.08
2019-03-23T22:43:49.504Z,5.28
2019-03-23T22:46:18.393Z,4.30
2019-03-23T22:48:47.242Z,4.03
2019-03-23T22:51:16.135Z,4.12
2019-03-23T22:53:44.981Z,4.83
2019-03-23T22:56:13.485Z,5.25
2019-03-23T22:58:42.429Z,4.50
2019-03-23T23:01:11.725Z,4.45
2019-03-23T23:03:40.574Z,4.33
2019-03-23T23:06:22.100Z,3.77
2019-03-23T23:08:50.970Z,4.45
2019-03-23T23:11:19.863Z,3.98
2019-03-23T23:13:48.772Z,4.37
2019-03-23T23:16:17.657Z,4.15
2019-03-23T23:18:46.514Z,4.08
2019-03-23T23:21:15.375Z,6.50
2019-03-23T23:23:44.495Z,4.00
2019-03-23T23:26:13.356Z,4.80
2019-03-23T23:28:42.238Z,5.12
2019-03-23T23:31:10.768Z,4.58
2019-03-23T23:33:39.606Z,6.67
2019-03-23T23:36:08.465Z,6.25
2019-03-23T23:38:37.269Z,4.25
2019-03-23T23:41:06.126Z,4.55
2019-03-23T23:43:54.463Z,4.83
2019-03-23T23:46:22.995Z,5.28
2019-03-23T23:48:51.873Z,5.53
2019-03-23T23:51:20.742Z,5.83
2019-03-23T23:53:49.563Z,4.37
2019-03-23T23:56:18.537Z,4.92
2019-03-23T23:58:47.580Z,5.87
